Dame Des Tropiques — FQJE — position and weather

sailwx.info

Track history (hours):
 
Tides and Currents Weather Stations Pressure Air Temp Water Temp Dewpoint Dewpoint Depression Visibility Wind Speed Wind Dir Waves Ship Positions

Dame Des Tropiques

Last reported at 2017-Feb-19 11:33 UTC. Time now 2017-Feb-19 11:59 UTC.
Position N 36°14' W 005°16'.

Length 28 m.

Type: Sailing vessel. MMSI: 227471410.

Date/timePositionNaut miles runAvg speedWind from/ knotsBaromVisibWave heightAir tempDewpointWater temp
2017-Feb-19 11:33N 36°14' W 005°16'3 3.5
2017-Feb-19 10:33N 36°11' W 005°19'5 5.2
2017-Feb-19 09:33N 36°07' W 005°22'2 2.3
2017-Feb-19 08:33N 36°09' W 005°21'0 0.0
2017-Feb-19 07:33N 36°09' W 005°21'0 0.0
2017-Feb-19 06:33N 36°09' W 005°21'0 0.0
2017-Feb-19 05:31N 36°09' W 005°21'0 0.0
2017-Feb-19 04:33N 36°09' W 005°21'0 0.0
2017-Feb-19 03:33N 36°09' W 005°21'0 0.0
2017-Feb-19 02:33N 36°09' W 005°21'2 2.1
2017-Feb-19 01:33N 36°07' W 005°22'6 5.9
2017-Feb-19 00:33N 36°02' W 005°27'206 5.0
2017-Feb-17 07:33N 37°40' W 009°14'6 6.2
2017-Feb-17 06:33N 37°46' W 009°16'6 6.3
2017-Feb-17 05:33N 37°53' W 009°17'6 6.2
2017-Feb-17 04:33N 37°59' W 009°18'7 7.1
2017-Feb-17 03:33N 38°06' W 009°20'7 6.9
2017-Feb-17 02:32N 38°13' W 009°22'7 6.7
2017-Feb-17 01:33N 38°19' W 009°24'7 6.6
2017-Feb-17 00:33N 38°25' W 009°26'6 6.3
2017-Feb-16 23:33N 38°31' W 009°28'6 6.0
2017-Feb-16 22:33N 38°37' W 009°31'6 6.1
2017-Feb-16 21:34N 38°43' W 009°34'7 6.6
2017-Feb-16 20:32N 38°49' W 009°35'7 7.2
2017-Feb-16 19:33N 38°57' W 009°36'7 7.1
2017-Feb-16 18:33N 39°04' W 009°36'7 7.0
2017-Feb-16 17:33N 39°11' W 009°36'7 7.1
2017-Feb-16 16:33N 39°18' W 009°37'  
2017-Feb-10 04:33N 48°25' W 005°03'8 7.6
2017-Feb-10 03:33N 48°31' W 004°56'6 5.6
2017-Feb-10 02:33N 48°35' W 004°51'5 5.0
2017-Feb-10 01:33N 48°39' W 004°46'  
Track history (hours):
 
Tides and Currents Weather Stations Pressure Air Temp Water Temp Dewpoint Dewpoint Depression Visibility Wind Speed Wind Dir Waves Ship Positions

Dame Des Tropiques

Last reported at 2017-Feb-19 11:33 UTC. Time now 2017-Feb-19 11:59 UTC.
Position N 36°14' W 005°16'.

Length 28 m.

Type: Sailing vessel. MMSI: 227471410.

Date/timePositionNaut miles runAvg speedWind from/ knotsBaromVisibWave heightAir tempDewpointWater temp
2017-Feb-19 11:33N 36°14' W 005°16'3 3.5
2017-Feb-19 10:33N 36°11' W 005°19'5 5.2
2017-Feb-19 09:33N 36°07' W 005°22'2 2.3
2017-Feb-19 08:33N 36°09' W 005°21'0 0.0
2017-Feb-19 07:33N 36°09' W 005°21'0 0.0
2017-Feb-19 06:33N 36°09' W 005°21'0 0.0
2017-Feb-19 05:31N 36°09' W 005°21'0 0.0
2017-Feb-19 04:33N 36°09' W 005°21'0 0.0
2017-Feb-19 03:33N 36°09' W 005°21'0 0.0
2017-Feb-19 02:33N 36°09' W 005°21'2 2.1
2017-Feb-19 01:33N 36°07' W 005°22'6 5.9
2017-Feb-19 00:33N 36°02' W 005°27'206 5.0
2017-Feb-17 07:33N 37°40' W 009°14'6 6.2
2017-Feb-17 06:33N 37°46' W 009°16'6 6.3
2017-Feb-17 05:33N 37°53' W 009°17'6 6.2
2017-Feb-17 04:33N 37°59' W 009°18'7 7.1
2017-Feb-17 03:33N 38°06' W 009°20'7 6.9
2017-Feb-17 02:32N 38°13' W 009°22'7 6.7
2017-Feb-17 01:33N 38°19' W 009°24'7 6.6
2017-Feb-17 00:33N 38°25' W 009°26'6 6.3
2017-Feb-16 23:33N 38°31' W 009°28'6 6.0
2017-Feb-16 22:33N 38°37' W 009°31'6 6.1
2017-Feb-16 21:34N 38°43' W 009°34'7 6.6
2017-Feb-16 20:32N 38°49' W 009°35'7 7.2
2017-Feb-16 19:33N 38°57' W 009°36'7 7.1
2017-Feb-16 18:33N 39°04' W 009°36'7 7.0
2017-Feb-16 17:33N 39°11' W 009°36'7 7.1
2017-Feb-16 16:33N 39°18' W 009°37'  
2017-Feb-10 04:33N 48°25' W 005°03'8 7.6
2017-Feb-10 03:33N 48°31' W 004°56'6 5.6
2017-Feb-10 02:33N 48°35' W 004°51'5 5.0
2017-Feb-10 01:33N 48°39' W 004°46'  

Dump ship's entire track history